createdAt,value
2022-08-24T05:37:30.157Z,0.47
2022-08-24T05:40:02.346Z,0.68
2022-08-24T05:42:31.681Z,0.70
2022-08-24T05:45:00.681Z,0.50
2022-08-24T05:47:29.515Z,0.50
2022-08-24T06:02:25.358Z,0.75
2022-08-24T06:04:54.562Z,0.80
2022-08-24T06:07:23.648Z,1.17
2022-08-24T06:09:54.185Z,0.63
2022-08-24T06:12:23.138Z,0.70
2022-08-24T06:14:54.028Z,1.40
2022-08-24T06:17:23.068Z,0.80
2022-08-24T06:19:52.819Z,1.23
2022-08-24T06:22:21.883Z,0.85
2022-08-24T06:25:08.435Z,1.02
2022-08-24T06:27:37.417Z,1.08
2022-08-24T06:30:10.201Z,0.90
2022-08-24T06:32:39.466Z,0.82
2022-08-24T06:35:11.432Z,0.90
2022-08-24T06:37:40.489Z,0.90
2022-08-24T06:40:10.329Z,0.93
2022-08-24T06:42:39.278Z,0.82
2022-08-24T06:45:10.467Z,1.10
2022-08-24T06:47:39.709Z,0.90
2022-08-24T06:50:09.201Z,1.10
2022-08-24T06:52:39.506Z,0.80
2022-08-24T06:55:08.771Z,0.82
2022-08-24T06:57:37.741Z,1.00
2022-08-24T07:00:08.575Z,1.40
2022-08-24T07:02:38.954Z,1.23
2022-08-24T07:10:05.643Z,1.10
2022-08-24T07:12:34.592Z,1.17
2022-08-24T07:15:03.657Z,1.00
2022-08-24T07:17:46.546Z,1.17
2022-08-24T07:20:15.451Z,0.80
2022-08-24T07:22:44.273Z,1.60
2022-08-24T07:32:58.052Z,1.40
2022-08-24T07:35:27.889Z,2.08
2022-08-24T07:37:57.166Z,2.15
2022-08-24T08:38:32.597Z,2.83
